Time;durP1;ratioP1;P1;durP2;ratioP2;P2;SDS_P1;SDS_P2;PMS_P1;PMS_P2;Temp;Humidity;BMP_temperature;BMP_pressure;BME280_temperature;BME280_humidity;BME280_pressure;Samples;Min_cycle;Max_cycle;Signal;HPM_P1;HPM_P2
2023/08/18 00:03:32;;;;;;;12.45;5.75;;;;;;;23.55;64.06;99895.06;9474531;26;37964;-81
2023/08/18 00:07:48;;;;;;;10.32;5.10;;;;;;;23.53;64.14;99892.66;9474527;26;40145;-81
2023/08/18 00:12:05;;;;;;;8.85;5.15;;;;;;;23.36;64.93;99890.19;9473686;26;39946;-82
2023/08/18 00:16:21;;;;;;;8.90;5.57;;;;;;;23.41;64.83;99892.72;9474198;26;38189;-82
2023/08/18 00:20:37;;;;;;;7.50;5.25;;;;;;;23.38;64.89;99896.22;9474526;26;37119;-82
2023/08/18 00:24:55;;;;;;;10.02;5.70;;;;;;;23.35;64.96;99888.56;9474414;26;40076;-82
2023/08/18 00:29:12;;;;;;;10.88;5.35;;;;;;;23.53;64.35;99883.50;9474377;26;42254;-82
2023/08/18 00:33:28;;;;;;;9.40;5.70;;;;;;;23.43;64.51;99882.03;9474208;26;37962;-83
2023/08/18 00:37:45;;;;;;;8.90;5.25;;;;;;;23.35;64.92;99878.28;9474321;26;37717;-81
2023/08/18 00:42:02;;;;;;;12.52;6.07;;;;;;;23.57;64.31;99874.06;9474325;26;40002;-81
2023/08/18 00:46:19;;;;;;;11.27;5.45;;;;;;;23.36;65.11;99879.06;9474190;26;39946;-81
2023/08/18 00:50:36;;;;;;;8.95;4.85;;;;;;;23.57;64.29;99876.84;9473871;26;38011;-81
2023/08/18 00:54:52;;;;;;;9.73;5.40;;;;;;;23.47;64.99;99873.78;9474222;26;37075;-81
2023/08/18 00:59:09;;;;;;;9.35;5.50;;;;;;;23.44;65.12;99875.31;9453880;26;39467;-81
2023/08/18 01:03:26;;;;;;;18.12;6.28;;;;;;;23.28;65.79;99882.81;9474002;26;40797;-81
2023/08/18 01:07:42;;;;;;;9.73;5.22;;;;;;;23.42;65.42;99874.84;9473887;26;38120;-81
2023/08/18 01:12:22;;;;;;;11.60;5.75;;;;;;;23.29;65.85;99878.87;9473620;26;37907;-80
2023/08/18 01:16:42;;;;;;;10.90;5.97;;;;;;;23.51;65.20;99867.16;9456311;26;40754;-81
2023/08/18 01:21:01;;;;;;;8.90;5.62;;;;;;;23.62;64.64;99876.59;9473370;26;39741;-80
2023/08/18 01:25:17;;;;;;;8.07;4.87;;;;;;;23.56;64.98;99861.34;9455197;26;37920;-81
2023/08/18 01:29:34;;;;;;;8.93;4.97;;;;;;;23.41;65.20;99867.69;9454989;26;37043;-81
2023/08/18 01:33:54;;;;;;;9.13;6.03;;;;;;;23.45;65.07;99863.00;9475433;26;39307;-81
2023/08/18 01:38:11;;;;;;;8.25;5.57;;;;;;;23.45;64.90;99876.94;9455374;26;41030;-81
2023/08/18 01:42:28;;;;;;;8.02;5.37;;;;;;;23.50;64.71;99871.09;9436159;26;37974;-81
2023/08/18 01:46:46;;;;;;;9.15;5.87;;;;;;;23.48;64.72;99865.09;9475397;26;37173;-81
2023/08/18 01:51:02;;;;;;;8.23;5.28;;;;;;;23.47;64.73;99868.22;9475322;26;39388;-81
2023/08/18 01:55:19;;;;;;;7.97;5.00;;;;;;;23.49;64.47;99869.50;9475380;26;40218;-81
2023/08/18 01:59:35;;;;;;;11.10;5.70;;;;;;;23.40;64.54;99868.84;9475130;26;37743;-81
2023/08/18 02:03:52;;;;;;;10.35;5.62;;;;;;;23.44;64.22;99864.19;9475044;26;37340;-80
2023/08/18 02:08:09;;;;;;;10.02;5.22;;;;;;;23.45;63.81;99851.88;9475238;26;39995;-81
2023/08/18 02:12:26;;;;;;;10.80;6.28;;;;;;;23.25;64.48;99860.12;9475092;26;40567;-81
2023/08/18 02:16:42;;;;;;;9.32;5.28;;;;;;;23.25;64.72;99862.91;9474775;26;38030;-81
2023/08/18 02:20:59;;;;;;;9.73;5.75;;;;;;;23.19;64.99;99853.19;9474928;26;37959;-80
2023/08/18 02:25:16;;;;;;;8.88;5.62;;;;;;;23.29;64.73;99843.53;9475126;26;39327;-80
2023/08/18 02:29:32;;;;;;;10.90;5.97;;;;;;;23.27;64.68;99839.47;9475090;26;40035;-81
2023/08/18 02:33:48;;;;;;;11.20;5.70;;;;;;;23.25;64.90;99843.44;9474747;26;37987;-81
2023/08/18 02:38:06;;;;;;;9.23;5.60;;;;;;;23.15;65.30;99849.50;9475184;26;37826;-81
2023/08/18 02:42:22;;;;;;;14.82;5.90;;;;;;;23.41;64.04;99839.88;9474974;26;39544;-81
2023/08/18 02:46:38;;;;;;;9.10;5.70;;;;;;;23.21;64.78;99856.41;9475254;26;39859;-81
2023/08/18 02:51:21;;;;;;;8.35;4.90;;;;;;;23.17;65.06;99851.94;9474728;26;37681;-81
2023/08/18 02:55:42;;;;;;;11.25;5.40;;;;;;;23.18;64.80;99848.81;9471777;26;37821;-81
2023/08/18 02:59:58;;;;;;;9.13;5.30;;;;;;;23.11;64.68;99842.22;9474991;26;38923;-81
2023/08/18 03:04:15;;;;;;;8.52;5.28;;;;;;;23.09;64.50;99850.91;9474849;26;39711;-80
2023/08/18 03:08:32;;;;;;;10.00;5.50;;;;;;;23.30;63.45;99842.38;9474718;26;38505;-80
2023/08/18 03:12:49;;;;;;;12.55;5.47;;;;;;;23.15;63.58;99866.19;9474782;26;37733;-80
2023/08/18 03:17:06;;;;;;;10.00;6.05;;;;;;;22.99;64.24;99859.75;9474746;26;39329;-81
2023/08/18 03:21:22;;;;;;;11.07;5.82;;;;;;;23.08;64.09;99863.22;9474535;26;40046;-81
2023/08/18 03:25:38;;;;;;;9.77;5.60;;;;;;;23.08;63.83;99862.41;9474748;26;38025;-81
2023/08/18 03:29:55;;;;;;;11.93;5.65;;;;;;;23.04;64.21;99857.53;9474905;26;37196;-80
2023/08/18 03:34:11;;;;;;;8.38;5.28;;;;;;;23.00;64.41;99866.94;9474695;26;39896;-80
2023/08/18 03:38:27;;;;;;;9.07;5.40;;;;;;;23.10;64.27;99874.78;9474683;26;40172;-81
2023/08/18 03:42:44;;;;;;;10.63;5.57;;;;;;;22.95;65.11;99870.75;9474457;26;38684;-81
2023/08/18 03:47:00;;;;;;;13.60;5.95;;;;;;;23.12;64.51;99886.37;9474112;26;37150;-80
2023/08/18 03:51:16;;;;;;;11.88;5.80;;;;;;;23.13;64.73;99885.22;9474556;26;39425;-81
2023/08/18 03:55:32;;;;;;;15.10;5.78;;;;;;;23.23;64.62;99865.25;9474544;26;39935;-81
2023/08/18 03:59:49;;;;;;;11.77;5.68;;;;;;;23.18;65.10;99865.50;9474360;26;38492;-81
2023/08/18 04:04:05;;;;;;;9.77;5.85;;;;;;;23.39;64.45;99865.25;9474543;26;37045;-81
2023/08/18 04:08:21;;;;;;;10.20;6.12;;;;;;;23.35;64.60;99866.31;9474706;26;40386;-81
2023/08/18 04:12:37;;;;;;;9.65;6.30;;;;;;;23.41;64.20;99870.47;9474132;26;39906;-81
2023/08/18 04:16:54;;;;;;;11.25;6.65;;;;;;;23.02;66.37;99893.19;9474378;26;37976;-81
2023/08/18 04:21:10;;;;;;;12.80;6.30;;;;;;;22.73;67.94;99885.19;9474504;26;37346;-82
2023/08/18 04:25:27;;;;;;;10.70;6.10;;;;;;;23.11;66.40;99879.19;9474256;26;39155;-82
2023/08/18 04:29:44;;;;;;;13.38;5.78;;;;;;;23.11;66.00;99878.37;9474136;26;39596;-81
2023/08/18 04:34:00;;;;;;;11.15;6.15;;;;;;;23.08;65.96;99879.91;9453511;26;38705;-81
2023/08/18 04:38:17;;;;;;;12.93;6.18;;;;;;;23.08;66.26;99884.63;9474343;26;37233;-81
2023/08/18 04:42:33;;;;;;;7.78;5.45;;;;;;;23.21;65.31;99880.66;9473975;26;39413;-81
2023/08/18 04:46:50;;;;;;;9.45;5.50;;;;;;;23.36;64.67;99876.28;9474091;26;39855;-81
2023/08/18 04:51:06;;;;;;;9.23;6.18;;;;;;;23.05;65.92;99875.00;9473968;26;38704;-81
2023/08/18 04:55:22;;;;;;;9.30;5.97;;;;;;;23.02;66.55;99876.50;9474138;26;37185;-79
2023/08/18 04:59:38;;;;;;;9.50;5.57;;;;;;;22.97;66.63;99865.66;9473968;26;39461;-81
2023/08/18 05:03:55;;;;;;;9.85;6.28;;;;;;;22.93;66.60;99867.53;9474304;26;39979;-81
2023/08/18 05:08:11;;;;;;;10.05;5.97;;;;;;;22.85;67.00;99874.03;9473666;26;37743;-75
2023/08/18 05:12:27;;;;;;;9.57;6.22;;;;;;;22.65;68.55;99887.75;9473798;26;37313;-74
2023/08/18 05:16:44;;;;;;;12.93;6.40;;;;;;;22.78;68.03;99894.09;9473684;26;40183;-75
2023/08/18 05:21:01;;;;;;;12.60;6.75;;;;;;;22.56;69.08;99897.38;9473781;26;40001;-76
2023/08/18 05:25:17;;;;;;;11.65;6.30;;;;;;;22.74;68.61;99887.63;9474284;26;38078;-75
2023/08/18 05:29:34;;;;;;;10.15;6.32;;;;;;;23.04;67.81;99881.72;9473756;26;37933;-75
2023/08/18 05:33:50;;;;;;;11.05;6.35;;;;;;;23.33;67.53;99882.56;9473307;26;39460;-75
2023/08/18 05:38:12;;;;;;;12.15;6.78;;;;;;;23.67;66.68;99894.19;9473597;26;39943;-75
2023/08/18 05:42:29;;;;;;;11.43;6.33;;;;;;;23.78;66.36;99898.06;9473610;26;38111;-76
2023/08/18 05:46:45;;;;;;;9.50;6.30;;;;;;;23.78;66.67;99895.25;9473550;26;37869;-75
2023/08/18 05:51:02;;;;;;;12.93;6.70;;;;;;;23.96;65.89;99893.78;9473513;26;39372;-75
2023/08/18 05:55:19;;;;;;;11.12;6.40;;;;;;;23.93;66.13;99902.03;9473369;26;40056;-69
2023/08/18 05:59:35;;;;;;;9.63;6.75;;;;;;;24.09;65.70;99905.62;9473239;26;38526;-72
2023/08/18 06:03:52;;;;;;;11.80;6.20;;;;;;;24.28;66.21;99902.09;9473139;26;37008;-77
2023/08/18 06:08:08;;;;;;;11.23;6.35;;;;;;;24.76;65.22;99898.41;9453219;26;39416;-79
2023/08/18 06:12:24;;;;;;;8.77;5.57;;;;;;;25.05;64.02;99885.88;9474320;26;40019;-77
2023/08/18 06:16:40;;;;;;;9.88;6.10;;;;;;;25.24;63.31;99891.44;9474911;26;38249;-74
2023/08/18 06:20:57;;;;;;;12.35;6.03;;;;;;;25.59;62.96;99896.09;9475181;26;37162;-75
2023/08/18 06:25:14;;;;;;;9.75;5.20;;;;;;;25.53;62.19;99894.00;9475168;26;39121;-74
2023/08/18 06:29:30;;;;;;;11.45;6.03;;;;;;;25.68;60.86;99893.06;9454466;26;40830;-77
2023/08/18 06:33:47;;;;;;;9.98;5.55;;;;;;;25.91;60.34;99900.66;9474824;26;38768;-76
2023/08/18 06:38:03;;;;;;;9.32;5.35;;;;;;;25.96;60.82;99903.97;9475137;26;36790;-75
2023/08/18 06:42:19;;;;;;;9.52;5.90;;;;;;;26.63;58.69;99890.62;9475065;26;40236;-79
2023/08/18 06:46:36;;;;;;;9.20;5.55;;;;;;;26.67;57.75;99894.28;9475029;26;40059;-82
2023/08/18 06:50:52;;;;;;;8.38;5.45;;;;;;;26.26;59.43;99889.25;9454342;26;37965;-81
2023/08/18 06:55:13;;;;;;;11.18;5.72;;;;;;;26.52;58.09;99899.63;9474758;26;37966;-80
2023/08/18 06:59:35;;;;;;;8.27;5.03;;;;;;;26.69;57.57;99889.13;9475014;26;39369;-85
2023/08/18 07:03:52;;;;;;;11.50;5.43;;;;;;;26.81;56.42;99885.28;9474773;26;39729;-82
2023/08/18 07:08:09;;;;;;;11.48;5.18;;;;;;;27.15;55.81;99877.69;9474329;26;38004;-83
2023/08/18 07:12:25;;;;;;;7.32;4.70;;;;;;;27.07;55.50;99888.00;9474825;26;37925;-82
2023/08/18 07:16:43;;;;;;;7.22;4.70;;;;;;;27.04;55.55;99893.53;9474443;26;40164;-81
2023/08/18 07:20:59;;;;;;;9.35;5.40;;;;;;;27.25;54.70;99893.81;9474591;26;40075;-84
2023/08/18 07:25:16;;;;;;;8.38;4.70;;;;;;;27.59;54.89;99890.97;9454134;26;37939;-82
2023/08/18 07:29:33;;;;;;;10.27;4.78;;;;;;;27.71;52.62;99904.69;9467976;26;37206;-82
2023/08/18 07:33:51;;;;;;;7.40;4.62;;;;;;;28.10;52.48;99897.84;9473666;26;40082;-82
2023/08/18 07:38:07;;;;;;;7.20;4.95;;;;;;;28.01;51.56;99898.19;9473194;26;40010;-82
2023/08/18 07:42:24;;;;;;;10.43;4.80;;;;;;;28.29;52.51;99905.22;9473530;26;38381;-79
2023/08/18 07:46:41;;;;;;;9.57;4.85;;;;;;;28.46;50.07;99904.50;9474465;26;37150;-82
2023/08/18 07:50:59;;;;;;;9.48;4.82;;;;;;;28.79;48.84;99904.72;9473419;26;39334;-82
2023/08/18 07:55:21;;;;;;;12.35;5.20;;;;;;;28.63;49.85;99911.47;9474252;26;40732;-82
2023/08/18 07:59:38;;;;;;;7.05;4.62;;;;;;;28.66;51.06;99918.28;9453038;26;38708;-82
2023/08/18 08:03:55;;;;;;;7.45;4.65;;;;;;;28.87;47.69;99917.56;9473394;26;37921;-83
2023/08/18 08:08:11;;;;;;;17.77;5.78;;;;;;;28.92;47.75;99919.22;9473917;26;39056;-82
2023/08/18 08:12:27;;;;;;;11.80;5.50;;;;;;;28.70;48.14;99913.50;9473089;26;40869;-82
2023/08/18 08:16:44;;;;;;;9.63;4.45;;;;;;;28.76;49.20;99922.34;9473847;26;38057;-81
2023/08/18 08:21:00;;;;;;;7.40;4.45;;;;;;;29.06;47.65;99924.87;9472986;26;37204;-73
2023/08/18 08:25:17;;;;;;;10.23;5.28;;;;;;;29.13;47.01;99929.72;9473429;26;39388;-74
2023/08/18 08:29:33;;;;;;;12.75;4.53;;;;;;;29.19;47.18;99934.59;9472759;26;40136;-74
2023/08/18 08:33:49;;;;;;;6.90;4.47;;;;;;;29.35;47.96;99925.81;9472071;26;38004;-76
2023/08/18 08:38:06;;;;;;;11.38;5.10;;;;;;;29.57;46.74;99934.31;9467069;26;37209;-76
2023/08/18 08:42:25;;;;;;;7.30;4.82;;;;;;;29.43;47.24;99940.69;9472575;26;39092;-76
2023/08/18 08:46:42;;;;;;;11.70;4.75;;;;;;;29.44;47.41;99939.47;9473867;26;39756;-77
2023/08/18 08:51:02;;;;;;;9.15;4.82;;;;;;;29.52;46.17;99934.69;9453747;26;38033;-73
2023/08/18 08:55:24;;;;;;;9.07;4.85;;;;;;;29.61;45.45;99943.53;9474059;26;37060;-75
2023/08/18 08:59:41;;;;;;;9.25;4.68;;;;;;;29.64;46.19;99939.13;9454376;26;39017;-72
2023/08/18 09:03:58;;;;;;;8.13;4.53;;;;;;;29.76;46.27;99933.97;9473715;26;40764;-75
2023/08/18 09:08:14;;;;;;;8.93;4.60;;;;;;;29.99;45.46;99940.41;9473563;26;38765;-74
2023/08/18 09:12:31;;;;;;;7.07;4.50;;;;;;;30.01;46.44;99935.19;9473463;26;37176;-72
2023/08/18 09:16:50;;;;;;;10.93;4.78;;;;;;;29.78;46.44;99933.56;9473869;26;39248;-74
2023/08/18 09:21:07;;;;;;;7.57;4.65;;;;;;;29.83;46.70;99930.34;9473596;26;40095;-74
2023/08/18 09:25:23;;;;;;;6.95;4.70;;;;;;;30.24;45.90;99926.38;9473533;26;38435;-77
2023/08/18 09:29:43;;;;;;;9.93;4.90;;;;;;;30.28;45.12;99925.13;9473322;26;37938;-74
2023/08/18 09:34:02;;;;;;;7.70;4.87;;;;;;;30.76;44.74;99914.63;9473470;26;39312;-77
2023/08/18 09:38:19;;;;;;;7.55;4.90;;;;;;;30.81;43.58;99908.59;9473977;26;39864;-78
2023/08/18 09:42:36;;;;;;;8.00;5.00;;;;;;;30.92;43.89;99905.72;9473326;26;37904;-74
2023/08/18 09:46:57;;;;;;;7.47;4.93;;;;;;;30.89;43.09;99908.16;9474561;26;37876;-82
2023/08/18 09:51:16;;;;;;;8.50;5.18;;;;;;;31.02;41.22;99905.72;9455112;26;39299;-82
2023/08/18 09:55:43;;;;;;;8.05;5.32;;;;;;;30.82;45.22;99904.56;9456260;26;39656;-83
2023/08/18 10:00:01;;;;;;;6.40;4.62;;;;;;;31.43;40.87;99893.84;9475132;26;38055;-80
2023/08/18 10:04:18;;;;;;;8.05;4.65;;;;;;;31.30;40.98;99889.09;9475505;26;37236;-80
2023/08/18 10:08:35;;;;;;;7.25;4.55;;;;;;;31.36;41.29;99891.06;9475271;26;40325;-80
2023/08/18 10:12:51;;;;;;;6.80;4.47;;;;;;;31.47;41.70;99876.12;9474927;26;39656;-80
2023/08/18 10:17:08;;;;;;;9.05;4.90;;;;;;;31.25;40.80;99884.69;9474861;26;38001;-81
2023/08/18 10:21:28;;;;;;;10.98;4.55;;;;;;;31.43;40.96;99885.38;9475228;26;36089;-80
2023/08/18 10:25:48;;;;;;;7.15;4.97;;;;;;;31.37;40.18;99875.75;9455007;26;40478;-79
2023/08/18 10:30:26;;;;;;;8.75;5.10;;;;;;;31.72;40.67;99873.94;9475141;26;39975;-79
2023/08/18 10:34:43;;;;;;;8.45;4.72;;;;;;;32.09;41.22;99880.91;9474713;26;38003;-80
2023/08/18 10:39:26;;;;;;;9.88;5.32;;;;;;;32.19;40.14;99871.53;9454952;26;37630;-79
2023/08/18 10:43:47;;;;;;;6.45;4.85;;;;;;;32.46;39.23;99867.22;9458352;26;38321;-79
2023/08/18 10:48:05;;;;;;;8.43;5.07;;;;;;;32.03;39.43;99873.28;9455452;26;40031;-80
2023/08/18 10:52:22;;;;;;;9.07;5.37;;;;;;;32.24;39.53;99881.56;9474942;26;38575;-84
2023/08/18 10:56:39;;;;;;;5.95;4.65;;;;;;;32.30;40.81;99884.75;9454315;26;37874;-81
2023/08/18 11:00:55;;;;;;;8.98;5.05;;;;;;;31.79;41.28;99887.97;9475055;26;39001;-80
2023/08/18 11:05:11;;;;;;;6.12;4.50;;;;;;;31.96;40.59;99883.41;9474767;26;39602;-80
2023/08/18 11:09:27;;;;;;;8.77;5.37;;;;;;;32.36;40.15;99883.06;9474879;26;38958;-80
2023/08/18 11:13:44;;;;;;;7.37;5.25;;;;;;;32.38;40.49;99875.00;9474790;26;37161;-80
2023/08/18 11:18:00;;;;;;;6.80;4.65;;;;;;;33.05;40.17;99866.16;9475007;26;39224;-83
2023/08/18 11:22:17;;;;;;;7.68;4.82;;;;;;;33.45;36.81;99869.25;9474764;26;40887;-82
2023/08/18 11:26:38;;;;;;;8.32;4.80;;;;;;;33.62;37.66;99861.72;9474481;26;37783;-82
2023/08/18 11:30:55;;;;;;;7.53;5.10;;;;;;;33.92;36.56;99860.03;9474630;26;37133;-80
2023/08/18 11:35:13;;;;;;;8.27;5.40;;;;;;;33.47;38.24;99858.31;9474661;26;39314;-82
2023/08/18 11:39:32;;;;;;;8.98;5.07;;;;;;;34.24;36.14;99862.34;9454422;26;40512;-82
2023/08/18 11:43:49;;;;;;;8.85;5.20;;;;;;;34.38;37.69;99853.56;9474591;26;37823;-82
2023/08/18 11:48:07;;;;;;;9.35;5.30;;;;;;;34.63;36.80;99852.25;9454622;26;37189;-83
2023/08/18 11:52:23;;;;;;;9.43;5.00;;;;;;;34.39;36.97;99866.50;9474628;26;40246;-82
2023/08/18 11:56:40;;;;;;;9.70;5.28;;;;;;;35.35;34.98;99856.44;9474709;26;39901;-82
2023/08/18 12:00:58;;;;;;;9.35;4.80;;;;;;;34.91;36.34;99855.75;9474474;26;37957;-82
2023/08/18 12:05:22;;;;;;;7.25;4.45;;;;;;;35.18;34.88;99849.91;9474592;26;37668;-82
2023/08/18 12:09:38;;;;;;;7.85;4.82;;;;;;;34.87;35.77;99846.53;9474053;26;39313;-82
2023/08/18 12:13:55;;;;;;;10.25;4.68;;;;;;;35.10;35.41;99837.94;9473953;26;39617;-82
2023/08/18 12:18:11;;;;;;;7.50;5.00;;;;;;;35.16;34.24;99833.34;9474397;26;37761;-82
2023/08/18 12:22:27;;;;;;;13.50;4.87;;;;;;;35.44;35.19;99825.44;9474140;26;37830;-81
2023/08/18 12:26:44;;;;;;;9.30;5.00;;;;;;;35.24;33.24;99827.53;9474116;26;39367;-82
2023/08/18 12:31:00;;;;;;;8.63;4.70;;;;;;;35.15;32.74;99828.09;9473790;26;40363;-82
2023/08/18 12:35:17;;;;;;;8.73;4.40;;;;;;;35.66;31.99;99831.38;9473728;26;37853;-81
2023/08/18 12:39:34;;;;;;;7.87;4.45;;;;;;;35.64;33.46;99831.03;9474090;26;37337;-82
2023/08/18 12:43:50;;;;;;;5.85;3.83;;;;;;;35.35;33.24;99834.53;9474044;26;39318;-82
2023/08/18 12:48:07;;;;;;;7.28;4.30;;;;;;;35.67;31.97;99830.12;9474230;26;40792;-82
2023/08/18 12:52:23;;;;;;;9.13;3.75;;;;;;;35.76;31.76;99829.53;9474189;26;38512;-83
2023/08/18 12:56:39;;;;;;;5.50;3.90;;;;;;;35.27;31.94;99827.47;9453937;26;36757;-82
2023/08/18 13:00:55;;;;;;;10.50;4.03;;;;;;;35.08;32.70;99834.75;9474207;26;40275;-82
2023/08/18 13:05:12;;;;;;;6.35;4.03;;;;;;;35.50;33.71;99817.22;9473809;26;40903;-82
2023/08/18 13:09:28;;;;;;;6.07;3.97;;;;;;;35.25;33.16;99817.81;9473811;26;37877;-82
2023/08/18 13:13:44;;;;;;;7.20;4.18;;;;;;;35.63;32.07;99815.25;9467182;26;170210;-86
2023/08/18 13:18:01;;;;;;;7.68;4.18;;;;;;;35.87;29.79;99804.53;9474259;26;40132;-85
2023/08/18 13:22:17;;;;;;;10.07;3.80;;;;;;;35.17;30.33;99803.78;9474609;26;39677;-82
2023/08/18 13:26:34;;;;;;;5.82;3.75;;;;;;;35.73;29.10;99802.06;9475391;26;38753;-79
2023/08/18 13:30:51;;;;;;;9.23;4.00;;;;;;;34.98;31.50;99794.09;9475403;26;37139;-80
2023/08/18 13:35:09;;;;;;;5.47;3.42;;;;;;;35.58;29.56;99780.97;9475344;26;39869;-80
2023/08/18 13:39:26;;;;;;;8.10;3.90;;;;;;;35.64;30.10;99770.69;9475300;26;39907;-80
2023/08/18 13:43:43;;;;;;;5.30;3.90;;;;;;;36.15;29.53;99782.28;9475573;26;36248;-79
2023/08/18 13:47:59;;;;;;;8.32;4.43;;;;;;;35.99;30.32;99788.03;9475049;26;37665;-80
2023/08/18 13:52:17;;;;;;;9.40;4.20;;;;;;;36.19;30.16;99779.37;9468079;26;39312;-80
2023/08/18 13:56:34;;;;;;;7.47;3.87;;;;;;;36.33;30.22;99775.38;9474259;26;39847;-80
2023/08/18 14:00:50;;;;;;;6.82;4.07;;;;;;;36.12;30.12;99782.41;9474044;26;38636;-80
2023/08/18 14:05:08;;;;;;;5.93;3.65;;;;;;;35.61;30.77;99794.25;9474724;26;37892;-80
2023/08/18 14:09:25;;;;;;;8.27;4.20;;;;;;;35.43;31.01;99795.50;9475140;26;39524;-80
2023/08/18 14:13:42;;;;;;;7.32;4.22;;;;;;;35.12;31.37;99804.31;9474014;26;39606;-80
2023/08/18 14:17:58;;;;;;;7.97;4.25;;;;;;;34.69;32.15;99812.94;9474751;26;39385;-80
2023/08/18 14:22:15;;;;;;;7.05;5.15;;;;;;;34.26;34.09;99806.12;9473942;26;37631;-80
2023/08/18 14:26:32;;;;;;;6.20;4.10;;;;;;;34.13;34.73;99822.09;9474728;26;39120;-80
2023/08/18 14:30:49;;;;;;;10.88;4.82;;;;;;;33.33;37.42;99830.28;9474433;26;40092;-80
2023/08/18 14:35:07;;;;;;;5.55;3.87;;;;;;;33.47;35.86;99822.38;9473910;26;38901;-80
2023/08/18 14:39:25;;;;;;;7.05;4.70;;;;;;;33.11;35.61;99827.75;9475031;26;37982;-80
2023/08/18 14:43:42;;;;;;;6.55;4.53;;;;;;;33.18;35.40;99829.69;9473963;26;39419;-80
2023/08/18 14:47:59;;;;;;;8.32;4.90;;;;;;;32.93;36.42;99836.47;9474969;26;39944;-80
2023/08/18 14:52:16;;;;;;;7.30;4.43;;;;;;;32.66;36.38;99845.66;9473560;26;38107;-80
2023/08/18 14:56:32;;;;;;;7.55;4.20;;;;;;;32.53;37.24;99836.94;9474623;26;37951;-80
2023/08/18 15:00:51;;;;;;;7.07;4.43;;;;;;;32.33;37.08;99844.41;9474621;26;39122;-80
2023/08/18 15:05:08;;;;;;;9.05;4.80;;;;;;;32.44;37.42;99850.72;9474032;26;38983;-81
2023/08/18 15:09:24;;;;;;;8.35;5.05;;;;;;;32.24;38.24;99835.66;9474511;26;37991;-80
2023/08/18 15:13:42;;;;;;;8.45;5.00;;;;;;;32.09;38.85;99835.00;9473211;26;38182;-80
2023/08/18 15:17:58;;;;;;;7.10;4.62;;;;;;;31.94;38.45;99823.03;9474228;26;39014;-80
2023/08/18 15:22:15;;;;;;;9.23;4.28;;;;;;;31.53;39.08;99816.13;9474516;26;39642;-80
2023/08/18 15:26:31;;;;;;;4.68;3.62;;;;;;;32.13;38.37;99818.84;9473951;26;37681;-80
2023/08/18 15:30:48;;;;;;;7.75;4.00;;;;;;;32.04;36.65;99813.66;9474638;26;35782;-80
2023/08/18 15:35:05;;;;;;;6.72;3.97;;;;;;;31.66;37.64;99813.59;9473698;26;39409;-78
2023/08/18 15:39:22;;;;;;;8.65;4.22;;;;;;;31.68;37.44;99797.06;9474602;26;40870;-80
2023/08/18 15:43:39;;;;;;;10.93;4.00;;;;;;;30.87;39.14;99802.81;9473336;26;38787;-79
2023/08/18 15:47:55;;;;;;;8.63;4.68;;;;;;;31.13;38.89;99797.88;9474111;26;36861;-80
2023/08/18 15:52:11;;;;;;;13.82;7.22;;;;;;;30.87;39.94;99791.56;9474239;26;39089;-80
2023/08/18 15:56:27;;;;;;;8.98;4.70;;;;;;;30.84;41.08;99786.78;9473279;26;40070;-80
2023/08/18 16:00:44;;;;;;;8.40;5.12;;;;;;;30.71;41.14;99775.19;9448910;26;37948;-80
2023/08/18 16:05:01;;;;;;;15.90;8.02;;;;;;;30.81;41.74;99779.16;9352407;26;37863;-82
2023/08/18 16:09:17;;;;;;;11.05;6.45;;;;;;;30.70;42.48;99770.75;9352807;26;38973;-79
2023/08/18 16:13:34;;;;;;;11.48;5.22;;;;;;;30.59;44.59;99776.44;9354872;26;39978;-82
2023/08/18 16:17:50;;;;;;;7.35;4.43;;;;;;;30.64;44.03;99767.56;9391832;26;37882;-82
2023/08/18 16:22:07;;;;;;;5.87;4.03;;;;;;;30.70;44.06;99782.81;9394376;26;37687;-82
2023/08/18 16:26:23;;;;;;;9.30;4.80;;;;;;;30.52;44.39;99779.28;9393788;26;38990;-81
2023/08/18 16:30:40;;;;;;;8.05;4.87;;;;;;;30.52;44.68;99780.06;9393910;26;40076;-82
2023/08/18 16:34:56;;;;;;;8.40;4.72;;;;;;;30.42;44.81;99783.72;9393908;26;37987;-82
2023/08/18 16:39:13;;;;;;;7.65;4.57;;;;;;;30.38;44.55;99794.19;9393339;26;37252;-81
2023/08/18 16:43:30;;;;;;;10.23;4.82;;;;;;;30.18;44.66;99807.88;9394195;26;39530;-82
2023/08/18 16:47:46;;;;;;;6.87;4.28;;;;;;;30.05;45.05;99812.34;9393136;26;40864;-82
2023/08/18 16:52:03;;;;;;;10.80;5.03;;;;;;;29.95;45.27;99817.56;9393804;26;39566;-82
2023/08/18 16:56:20;;;;;;;12.40;4.90;;;;;;;29.92;45.42;99815.53;9392998;26;37909;-82
2023/08/18 17:00:42;;;;;;;11.45;4.95;;;;;;;29.80;45.92;99821.56;9393655;26;39407;-82
2023/08/18 17:04:58;;;;;;;9.15;5.18;;;;;;;29.64;47.04;99812.75;9393712;26;40800;-82
2023/08/18 17:09:15;;;;;;;10.13;5.43;;;;;;;29.57;47.25;99817.13;9393065;26;38242;-82
2023/08/18 17:13:31;;;;;;;9.98;5.37;;;;;;;29.44;47.90;99818.72;9393711;26;37686;-82
2023/08/18 17:17:47;;;;;;;13.30;7.35;;;;;;;29.29;48.00;99819.94;9392594;26;39412;-82
2023/08/18 17:22:04;;;;;;;13.15;6.35;;;;;;;29.19;48.00;99805.47;9393154;26;40650;-82
2023/08/18 17:26:22;;;;;;;9.05;6.12;;;;;;;29.12;48.14;99816.66;9393694;26;37599;-81
2023/08/18 17:30:38;;;;;;;8.20;5.50;;;;;;;28.89;48.67;99808.59;9392960;26;37030;-82
2023/08/18 17:34:56;;;;;;;9.70;5.70;;;;;;;28.86;48.47;99808.59;9391489;26;40227;-81
2023/08/18 17:39:13;;;;;;;10.32;5.85;;;;;;;28.77;48.63;99812.56;9392481;26;39608;-81
2023/08/18 17:43:33;;;;;;;12.35;6.30;;;;;;;28.64;49.20;99816.91;9393103;26;38988;-81
2023/08/18 17:47:49;;;;;;;10.18;5.70;;;;;;;28.42;50.10;99828.00;9393496;26;37847;-81
2023/08/18 17:52:06;;;;;;;10.80;5.85;;;;;;;28.33;50.33;99821.94;9393702;26;40204;-82
2023/08/18 17:56:22;;;;;;;8.88;5.53;;;;;;;28.17;51.55;99836.25;9393105;26;40072;-81
2023/08/18 18:00:40;;;;;;;11.20;6.82;;;;;;;28.02;51.89;99845.75;9393401;26;38801;-81
2023/08/18 18:04:57;;;;;;;9.15;5.43;;;;;;;28.06;51.15;99847.41;9391237;26;37101;-82
2023/08/18 18:09:13;;;;;;;10.20;5.37;;;;;;;28.06;50.94;99855.81;9395107;26;39074;-82
2023/08/18 18:13:29;;;;;;;9.90;5.55;;;;;;;27.97;50.92;99860.91;9395039;26;40837;-81
2023/08/18 18:17:49;;;;;;;9.82;5.53;;;;;;;27.87;51.26;99864.41;9394769;26;38136;-81
2023/08/18 18:22:08;;;;;;;9.48;5.37;;;;;;;27.67;51.70;99878.66;9395214;26;37649;-82
2023/08/18 18:26:29;;;;;;;9.77;5.85;;;;;;;27.76;51.25;99878.34;9395136;26;39915;-82
2023/08/18 18:30:49;;;;;;;11.20;5.95;;;;;;;27.53;51.84;99875.72;9394971;26;39922;-82
2023/08/18 18:35:05;;;;;;;14.65;7.15;;;;;;;27.42;52.23;99881.19;9395149;26;38545;-82
2023/08/18 18:39:22;;;;;;;15.25;6.85;;;;;;;27.37;52.45;99891.94;9394859;26;37810;-82
2023/08/18 18:43:39;;;;;;;13.48;8.68;;;;;;;27.21;52.71;99886.53;9395071;26;39319;-83
2023/08/18 18:47:56;;;;;;;16.60;11.00;;;;;;;26.97;52.84;99903.47;9394492;26;40047;-81
2023/08/18 18:52:12;;;;;;;14.23;9.57;;;;;;;26.92;53.26;99903.81;9395428;26;37949;-84
2023/08/18 18:56:28;;;;;;;12.00;7.18;;;;;;;26.95;53.26;99896.63;9395012;26;37116;-84
2023/08/18 19:00:44;;;;;;;11.75;6.95;;;;;;;26.79;54.00;99899.63;9395003;26;39541;-83
2023/08/18 19:05:01;;;;;;;10.35;6.10;;;;;;;26.90;53.50;99906.16;9395088;26;40889;-82
2023/08/18 19:09:17;;;;;;;12.55;5.70;;;;;;;26.97;53.06;99911.88;9390137;26;37597;-82
2023/08/18 19:13:33;;;;;;;10.85;5.85;;;;;;;26.93;53.32;99911.00;9391888;26;36809;-83
2023/08/18 19:17:50;;;;;;;10.48;6.07;;;;;;;26.76;54.14;99903.19;9392077;26;39779;-80
2023/08/18 19:22:07;;;;;;;10.65;5.43;;;;;;;26.85;53.76;99898.09;9393540;26;39647;-82
2023/08/18 19:26:24;;;;;;;9.57;6.05;;;;;;;26.74;54.50;99895.16;9393623;26;38540;-81
2023/08/18 19:30:41;;;;;;;11.43;6.95;;;;;;;26.70;54.83;99894.31;9393186;26;37377;-82
2023/08/18 19:34:58;;;;;;;10.55;7.40;;;;;;;26.55;55.42;99890.50;9394631;26;39219;-82
2023/08/18 19:39:14;;;;;;;10.52;6.60;;;;;;;26.60;54.82;99884.56;9393955;26;40473;-83
2023/08/18 19:43:31;;;;;;;12.18;6.70;;;;;;;26.46;55.39;99884.38;9393135;26;38545;-83
2023/08/18 19:47:50;;;;;;;11.18;6.40;;;;;;;26.57;55.15;99888.13;9393865;26;37278;-83
2023/08/18 19:52:07;;;;;;;12.70;7.40;;;;;;;26.46;55.38;99892.75;9393494;26;39419;-83
2023/08/18 19:56:25;;;;;;;13.85;6.82;;;;;;;26.34;55.39;99890.19;9393840;26;39885;-83
2023/08/18 20:00:42;;;;;;;13.80;8.50;;;;;;;26.32;55.56;99903.72;9393254;26;38622;-83
2023/08/18 20:04:59;;;;;;;9.43;6.28;;;;;;;26.30;55.16;99889.31;9393696;26;36817;-83